sensor_id;sensor_type;location;lat;lon;timestamp;P1;durP1;ratioP1;P2;durP2;ratioP2
7573;SDS011;3828;48.922;9.116;2023-06-10T00:00:49;0.50;;;0.50;;
7573;SDS011;3828;48.922;9.116;2023-06-10T00:03:16;0.50;;;0.50;;
7573;SDS011;3828;48.922;9.116;2023-06-10T00:05:44;1.23;;;1.23;;
7573;SDS011;3828;48.922;9.116;2023-06-10T00:08:11;0.50;;;0.50;;
7573;SDS011;3828;48.922;9.116;2023-06-10T00:10:42;0.70;;;0.70;;
7573;SDS011;3828;48.922;9.116;2023-06-10T00:13:08;0.60;;;0.60;;
7573;SDS011;3828;48.922;9.116;2023-06-10T00:15:36;0.50;;;0.50;;
7573;SDS011;3828;48.922;9.116;2023-06-10T00:18:03;0.73;;;0.73;;
7573;SDS011;3828;48.922;9.116;2023-06-10T00:20:30;0.60;;;0.60;;
7573;SDS011;3828;48.922;9.116;2023-06-10T00:23:01;0.40;;;0.40;;
7573;SDS011;3828;48.922;9.116;2023-06-10T00:25:28;0.60;;;0.60;;
7573;SDS011;3828;48.922;9.116;2023-06-10T00:27:56;0.50;;;0.50;;
7573;SDS011;3828;48.922;9.116;2023-06-10T00:30:23;0.80;;;0.80;;
7573;SDS011;3828;48.922;9.116;2023-06-10T00:32:50;0.80;;;0.80;;
7573;SDS011;3828;48.922;9.116;2023-06-10T00:35:17;0.50;;;0.50;;
7573;SDS011;3828;48.922;9.116;2023-06-10T00:37:44;0.50;;;0.50;;
7573;SDS011;3828;48.922;9.116;2023-06-10T00:40:11;0.50;;;0.50;;
7573;SDS011;3828;48.922;9.116;2023-06-10T00:42:38;0.67;;;0.67;;
7573;SDS011;3828;48.922;9.116;2023-06-10T00:45:07;0.50;;;0.50;;
7573;SDS011;3828;48.922;9.116;2023-06-10T00:47:34;0.70;;;0.70;;
7573;SDS011;3828;48.922;9.116;2023-06-10T00:50:01;0.70;;;0.70;;
7573;SDS011;3828;48.922;9.116;2023-06-10T00:52:29;0.50;;;0.50;;
7573;SDS011;3828;48.922;9.116;2023-06-10T00:54:56;0.60;;;0.60;;
7573;SDS011;3828;48.922;9.116;2023-06-10T00:57:24;0.50;;;0.50;;
7573;SDS011;3828;48.922;9.116;2023-06-10T00:59:51;0.60;;;0.60;;
7573;SDS011;3828;48.922;9.116;2023-06-10T01:02:20;0.70;;;0.70;;
7573;SDS011;3828;48.922;9.116;2023-06-10T01:04:47;0.50;;;0.50;;
7573;SDS011;3828;48.922;9.116;2023-06-10T01:07:14;0.50;;;0.50;;
7573;SDS011;3828;48.922;9.116;2023-06-10T01:09:50;0.60;;;0.60;;
7573;SDS011;3828;48.922;9.116;2023-06-10T01:12:26;0.60;;;0.60;;
7573;SDS011;3828;48.922;9.116;2023-06-10T01:14:57;0.53;;;0.53;;
7573;SDS011;3828;48.922;9.116;2023-06-10T01:17:28;0.60;;;0.60;;
7573;SDS011;3828;48.922;9.116;2023-06-10T01:19:57;0.60;;;0.60;;
7573;SDS011;3828;48.922;9.116;2023-06-10T01:22:26;0.60;;;0.60;;
7573;SDS011;3828;48.922;9.116;2023-06-10T01:24:57;0.60;;;0.60;;
7573;SDS011;3828;48.922;9.116;2023-06-10T01:27:25;0.60;;;0.60;;
7573;SDS011;3828;48.922;9.116;2023-06-10T01:29:54;0.70;;;0.70;;
7573;SDS011;3828;48.922;9.116;2023-06-10T01:32:27;0.60;;;0.60;;
7573;SDS011;3828;48.922;9.116;2023-06-10T01:34:59;0.80;;;0.80;;
7573;SDS011;3828;48.922;9.116;2023-06-10T01:37:27;0.70;;;0.70;;
7573;SDS011;3828;48.922;9.116;2023-06-10T01:39:56;0.70;;;0.70;;
7573;SDS011;3828;48.922;9.116;2023-06-10T01:42:24;0.70;;;0.70;;
7573;SDS011;3828;48.922;9.116;2023-06-10T01:44:51;0.60;;;0.60;;
7573;SDS011;3828;48.922;9.116;2023-06-10T01:47:18;0.80;;;0.80;;
7573;SDS011;3828;48.922;9.116;2023-06-10T01:49:45;0.50;;;0.50;;
7573;SDS011;3828;48.922;9.116;2023-06-10T01:52:12;0.60;;;0.60;;
7573;SDS011;3828;48.922;9.116;2023-06-10T01:54:41;0.60;;;0.60;;
7573;SDS011;3828;48.922;9.116;2023-06-10T01:57:07;0.60;;;0.60;;
7573;SDS011;3828;48.922;9.116;2023-06-10T01:59:34;0.53;;;0.53;;
7573;SDS011;3828;48.922;9.116;2023-06-10T02:02:03;0.80;;;0.80;;
7573;SDS011;3828;48.922;9.116;2023-06-10T02:04:30;1.00;;;1.00;;
7573;SDS011;3828;48.922;9.116;2023-06-10T02:06:57;0.60;;;0.60;;
7573;SDS011;3828;48.922;9.116;2023-06-10T02:09:24;0.70;;;0.70;;
7573;SDS011;3828;48.922;9.116;2023-06-10T02:11:53;0.70;;;0.70;;
7573;SDS011;3828;48.922;9.116;2023-06-10T02:14:19;0.70;;;0.70;;
7573;SDS011;3828;48.922;9.116;2023-06-10T02:16:46;0.60;;;0.60;;
7573;SDS011;3828;48.922;9.116;2023-06-10T02:19:13;0.73;;;0.73;;
7573;SDS011;3828;48.922;9.116;2023-06-10T02:21:40;0.80;;;0.80;;
7573;SDS011;3828;48.922;9.116;2023-06-10T02:24:07;0.67;;;0.67;;
7573;SDS011;3828;48.922;9.116;2023-06-10T02:26:36;0.70;;;0.70;;
7573;SDS011;3828;48.922;9.116;2023-06-10T02:29:04;0.70;;;0.70;;
7573;SDS011;3828;48.922;9.116;2023-06-10T02:31:31;0.80;;;0.80;;
7573;SDS011;3828;48.922;9.116;2023-06-10T02:34:00;0.70;;;0.70;;
7573;SDS011;3828;48.922;9.116;2023-06-10T02:36:28;0.70;;;0.70;;
7573;SDS011;3828;48.922;9.116;2023-06-10T02:38:55;0.70;;;0.70;;
7573;SDS011;3828;48.922;9.116;2023-06-10T02:41:22;0.60;;;0.60;;
7573;SDS011;3828;48.922;9.116;2023-06-10T02:43:50;0.60;;;0.60;;
7573;SDS011;3828;48.922;9.116;2023-06-10T02:46:18;0.60;;;0.60;;
7573;SDS011;3828;48.922;9.116;2023-06-10T02:48:45;0.70;;;0.70;;
7573;SDS011;3828;48.922;9.116;2023-06-10T02:51:14;0.60;;;0.60;;
7573;SDS011;3828;48.922;9.116;2023-06-10T02:53:41;0.70;;;0.70;;
7573;SDS011;3828;48.922;9.116;2023-06-10T02:56:08;0.60;;;0.60;;
7573;SDS011;3828;48.922;9.116;2023-06-10T02:58:36;0.60;;;0.60;;
7573;SDS011;3828;48.922;9.116;2023-06-10T03:01:03;0.87;;;0.87;;
7573;SDS011;3828;48.922;9.116;2023-06-10T03:03:32;0.60;;;0.60;;
7573;SDS011;3828;48.922;9.116;2023-06-10T03:05:59;0.60;;;0.60;;
7573;SDS011;3828;48.922;9.116;2023-06-10T03:08:27;0.70;;;0.70;;
7573;SDS011;3828;48.922;9.116;2023-06-10T03:10:54;0.60;;;0.60;;
7573;SDS011;3828;48.922;9.116;2023-06-10T03:13:21;0.70;;;0.70;;
7573;SDS011;3828;48.922;9.116;2023-06-10T03:15:49;0.60;;;0.60;;
7573;SDS011;3828;48.922;9.116;2023-06-10T03:18:16;0.83;;;0.83;;
7573;SDS011;3828;48.922;9.116;2023-06-10T03:20:44;1.00;;;1.00;;
7573;SDS011;3828;48.922;9.116;2023-06-10T03:23:10;0.80;;;0.80;;
7573;SDS011;3828;48.922;9.116;2023-06-10T03:25:37;0.80;;;0.80;;
7573;SDS011;3828;48.922;9.116;2023-06-10T03:28:04;0.73;;;0.73;;
7573;SDS011;3828;48.922;9.116;2023-06-10T03:30:31;0.70;;;0.70;;
7573;SDS011;3828;48.922;9.116;2023-06-10T03:32:59;1.00;;;1.00;;
7573;SDS011;3828;48.922;9.116;2023-06-10T03:35:26;0.70;;;0.70;;
7573;SDS011;3828;48.922;9.116;2023-06-10T03:37:54;0.97;;;0.97;;
7573;SDS011;3828;48.922;9.116;2023-06-10T03:40:21;0.60;;;0.60;;
7573;SDS011;3828;48.922;9.116;2023-06-10T03:42:48;0.80;;;0.80;;
7573;SDS011;3828;48.922;9.116;2023-06-10T03:45:15;0.50;;;0.50;;
7573;SDS011;3828;48.922;9.116;2023-06-10T03:47:42;0.90;;;0.90;;
7573;SDS011;3828;48.922;9.116;2023-06-10T03:50:10;0.70;;;0.70;;
7573;SDS011;3828;48.922;9.116;2023-06-10T03:52:37;0.90;;;0.90;;
7573;SDS011;3828;48.922;9.116;2023-06-10T03:55:06;0.70;;;0.70;;
7573;SDS011;3828;48.922;9.116;2023-06-10T03:57:36;0.70;;;0.70;;
7573;SDS011;3828;48.922;9.116;2023-06-10T04:00:03;0.70;;;0.70;;
7573;SDS011;3828;48.922;9.116;2023-06-10T04:02:35;0.60;;;0.60;;
7573;SDS011;3828;48.922;9.116;2023-06-10T04:05:03;0.60;;;0.60;;
7573;SDS011;3828;48.922;9.116;2023-06-10T04:07:30;0.70;;;0.70;;
7573;SDS011;3828;48.922;9.116;2023-06-10T04:09:57;0.70;;;0.70;;
7573;SDS011;3828;48.922;9.116;2023-06-10T04:12:25;0.70;;;0.70;;
7573;SDS011;3828;48.922;9.116;2023-06-10T04:14:52;0.70;;;0.70;;
7573;SDS011;3828;48.922;9.116;2023-06-10T04:17:19;0.80;;;0.80;;
7573;SDS011;3828;48.922;9.116;2023-06-10T04:19:46;0.70;;;0.70;;
7573;SDS011;3828;48.922;9.116;2023-06-10T04:22:13;0.90;;;0.90;;
7573;SDS011;3828;48.922;9.116;2023-06-10T04:24:41;0.70;;;0.70;;
7573;SDS011;3828;48.922;9.116;2023-06-10T04:27:08;0.70;;;0.70;;
7573;SDS011;3828;48.922;9.116;2023-06-10T04:29:36;0.70;;;0.70;;
7573;SDS011;3828;48.922;9.116;2023-06-10T04:32:03;0.60;;;0.60;;
7573;SDS011;3828;48.922;9.116;2023-06-10T04:34:32;0.70;;;0.70;;
7573;SDS011;3828;48.922;9.116;2023-06-10T04:36:59;0.70;;;0.70;;
7573;SDS011;3828;48.922;9.116;2023-06-10T04:39:26;0.80;;;0.80;;
7573;SDS011;3828;48.922;9.116;2023-06-10T04:41:53;0.60;;;0.60;;
7573;SDS011;3828;48.922;9.116;2023-06-10T04:44:21;0.67;;;0.67;;
7573;SDS011;3828;48.922;9.116;2023-06-10T04:46:49;0.80;;;0.80;;
7573;SDS011;3828;48.922;9.116;2023-06-10T04:49:16;0.70;;;0.70;;
7573;SDS011;3828;48.922;9.116;2023-06-10T04:51:43;0.60;;;0.60;;
7573;SDS011;3828;48.922;9.116;2023-06-10T04:54:10;0.67;;;0.67;;
7573;SDS011;3828;48.922;9.116;2023-06-10T04:56:37;0.70;;;0.70;;
7573;SDS011;3828;48.922;9.116;2023-06-10T04:59:04;0.70;;;0.70;;
7573;SDS011;3828;48.922;9.116;2023-06-10T05:01:31;0.60;;;0.60;;
7573;SDS011;3828;48.922;9.116;2023-06-10T05:04:00;0.80;;;0.80;;
7573;SDS011;3828;48.922;9.116;2023-06-10T05:06:26;0.67;;;0.67;;
7573;SDS011;3828;48.922;9.116;2023-06-10T05:08:53;0.80;;;0.80;;
7573;SDS011;3828;48.922;9.116;2023-06-10T05:11:21;0.60;;;0.60;;
7573;SDS011;3828;48.922;9.116;2023-06-10T05:13:48;0.50;;;0.50;;
7573;SDS011;3828;48.922;9.116;2023-06-10T05:16:15;0.60;;;0.60;;
7573;SDS011;3828;48.922;9.116;2023-06-10T05:18:45;0.60;;;0.60;;
7573;SDS011;3828;48.922;9.116;2023-06-10T05:21:20;0.77;;;0.77;;
7573;SDS011;3828;48.922;9.116;2023-06-10T05:23:47;0.50;;;0.50;;
7573;SDS011;3828;48.922;9.116;2023-06-10T05:26:14;0.50;;;0.50;;
7573;SDS011;3828;48.922;9.116;2023-06-10T05:28:41;0.57;;;0.57;;
7573;SDS011;3828;48.922;9.116;2023-06-10T05:31:09;0.60;;;0.60;;
7573;SDS011;3828;48.922;9.116;2023-06-10T05:33:36;0.60;;;0.60;;
7573;SDS011;3828;48.922;9.116;2023-06-10T05:36:03;0.70;;;0.70;;
7573;SDS011;3828;48.922;9.116;2023-06-10T05:38:31;0.50;;;0.50;;
7573;SDS011;3828;48.922;9.116;2023-06-10T05:40:58;0.70;;;0.70;;
7573;SDS011;3828;48.922;9.116;2023-06-10T05:43:25;0.50;;;0.50;;
7573;SDS011;3828;48.922;9.116;2023-06-10T05:45:52;0.70;;;0.70;;
7573;SDS011;3828;48.922;9.116;2023-06-10T05:48:20;0.50;;;0.50;;
7573;SDS011;3828;48.922;9.116;2023-06-10T05:50:47;0.70;;;0.70;;
7573;SDS011;3828;48.922;9.116;2023-06-10T05:53:14;0.50;;;0.50;;
7573;SDS011;3828;48.922;9.116;2023-06-10T05:55:43;0.77;;;0.77;;
7573;SDS011;3828;48.922;9.116;2023-06-10T05:58:11;0.50;;;0.50;;
7573;SDS011;3828;48.922;9.116;2023-06-10T06:00:38;0.60;;;0.60;;
7573;SDS011;3828;48.922;9.116;2023-06-10T06:03:05;0.70;;;0.70;;
7573;SDS011;3828;48.922;9.116;2023-06-10T06:05:33;0.60;;;0.60;;
7573;SDS011;3828;48.922;9.116;2023-06-10T06:08:02;0.50;;;0.50;;
7573;SDS011;3828;48.922;9.116;2023-06-10T06:10:29;0.50;;;0.50;;
7573;SDS011;3828;48.922;9.116;2023-06-10T06:12:57;0.50;;;0.50;;
7573;SDS011;3828;48.922;9.116;2023-06-10T06:15:24;0.50;;;0.50;;
7573;SDS011;3828;48.922;9.116;2023-06-10T06:17:51;0.67;;;0.67;;
7573;SDS011;3828;48.922;9.116;2023-06-10T06:20:18;0.60;;;0.60;;
7573;SDS011;3828;48.922;9.116;2023-06-10T06:22:45;0.50;;;0.50;;
7573;SDS011;3828;48.922;9.116;2023-06-10T06:25:12;0.60;;;0.60;;
7573;SDS011;3828;48.922;9.116;2023-06-10T06:27:39;0.67;;;0.67;;
7573;SDS011;3828;48.922;9.116;2023-06-10T06:30:08;0.90;;;0.90;;
7573;SDS011;3828;48.922;9.116;2023-06-10T06:32:35;0.60;;;0.60;;
7573;SDS011;3828;48.922;9.116;2023-06-10T06:35:03;0.60;;;0.60;;
7573;SDS011;3828;48.922;9.116;2023-06-10T06:37:32;0.53;;;0.53;;
7573;SDS011;3828;48.922;9.116;2023-06-10T06:39:59;0.50;;;0.50;;
7573;SDS011;3828;48.922;9.116;2023-06-10T06:42:27;0.50;;;0.50;;
7573;SDS011;3828;48.922;9.116;2023-06-10T06:44:53;0.50;;;0.50;;
7573;SDS011;3828;48.922;9.116;2023-06-10T06:47:21;0.50;;;0.50;;
7573;SDS011;3828;48.922;9.116;2023-06-10T06:49:48;0.40;;;0.40;;
7573;SDS011;3828;48.922;9.116;2023-06-10T06:52:15;0.50;;;0.50;;
7573;SDS011;3828;48.922;9.116;2023-06-10T06:54:42;0.43;;;0.43;;
7573;SDS011;3828;48.922;9.116;2023-06-10T06:57:09;0.50;;;0.50;;
7573;SDS011;3828;48.922;9.116;2023-06-10T06:59:36;0.40;;;0.40;;
7573;SDS011;3828;48.922;9.116;2023-06-10T07:02:03;0.50;;;0.50;;
7573;SDS011;3828;48.922;9.116;2023-06-10T07:04:31;0.40;;;0.40;;
7573;SDS011;3828;48.922;9.116;2023-06-10T07:06:58;0.70;;;0.70;;
7573;SDS011;3828;48.922;9.116;2023-06-10T07:09:25;0.47;;;0.47;;
7573;SDS011;3828;48.922;9.116;2023-06-10T07:11:53;0.40;;;0.40;;
7573;SDS011;3828;48.922;9.116;2023-06-10T07:14:20;0.40;;;0.40;;
7573;SDS011;3828;48.922;9.116;2023-06-10T07:16:47;0.50;;;0.50;;
7573;SDS011;3828;48.922;9.116;2023-06-10T07:19:14;0.40;;;0.40;;
7573;SDS011;3828;48.922;9.116;2023-06-10T07:21:43;0.97;;;0.97;;
7573;SDS011;3828;48.922;9.116;2023-06-10T07:24:09;0.40;;;0.40;;
7573;SDS011;3828;48.922;9.116;2023-06-10T07:26:36;0.50;;;0.50;;
7573;SDS011;3828;48.922;9.116;2023-06-10T07:29:03;0.30;;;0.30;;
7573;SDS011;3828;48.922;9.116;2023-06-10T07:31:30;0.70;;;0.70;;
7573;SDS011;3828;48.922;9.116;2023-06-10T07:33:57;0.47;;;0.47;;
7573;SDS011;3828;48.922;9.116;2023-06-10T07:36:24;0.50;;;0.50;;
7573;SDS011;3828;48.922;9.116;2023-06-10T07:38:55;0.30;;;0.30;;
7573;SDS011;3828;48.922;9.116;2023-06-10T07:41:22;0.40;;;0.40;;
7573;SDS011;3828;48.922;9.116;2023-06-10T07:43:50;0.30;;;0.30;;
7573;SDS011;3828;48.922;9.116;2023-06-10T07:46:19;0.80;;;0.80;;
7573;SDS011;3828;48.922;9.116;2023-06-10T07:48:46;0.40;;;0.40;;
7573;SDS011;3828;48.922;9.116;2023-06-10T07:51:13;0.40;;;0.40;;
7573;SDS011;3828;48.922;9.116;2023-06-10T07:53:41;0.50;;;0.50;;
7573;SDS011;3828;48.922;9.116;2023-06-10T07:56:10;0.33;;;0.33;;
7573;SDS011;3828;48.922;9.116;2023-06-10T07:58:36;0.40;;;0.40;;
7573;SDS011;3828;48.922;9.116;2023-06-10T08:01:04;0.70;;;0.70;;
7573;SDS011;3828;48.922;9.116;2023-06-10T08:03:31;0.50;;;0.50;;
7573;SDS011;3828;48.922;9.116;2023-06-10T08:05:57;0.40;;;0.40;;
7573;SDS011;3828;48.922;9.116;2023-06-10T08:08:25;0.40;;;0.40;;
7573;SDS011;3828;48.922;9.116;2023-06-10T08:10:52;0.30;;;0.30;;
7573;SDS011;3828;48.922;9.116;2023-06-10T08:13:20;0.30;;;0.30;;
7573;SDS011;3828;48.922;9.116;2023-06-10T08:15:47;0.40;;;0.40;;
7573;SDS011;3828;48.922;9.116;2023-06-10T08:18:15;0.40;;;0.40;;
7573;SDS011;3828;48.922;9.116;2023-06-10T08:20:42;0.20;;;0.20;;
7573;SDS011;3828;48.922;9.116;2023-06-10T08:23:09;0.30;;;0.30;;
7573;SDS011;3828;48.922;9.116;2023-06-10T08:25:36;0.30;;;0.30;;
7573;SDS011;3828;48.922;9.116;2023-06-10T08:28:03;0.37;;;0.37;;
7573;SDS011;3828;48.922;9.116;2023-06-10T08:30:31;0.30;;;0.30;;
7573;SDS011;3828;48.922;9.116;2023-06-10T08:32:58;0.57;;;0.57;;
7573;SDS011;3828;48.922;9.116;2023-06-10T08:35:25;0.30;;;0.30;;
7573;SDS011;3828;48.922;9.116;2023-06-10T08:37:52;0.50;;;0.50;;
7573;SDS011;3828;48.922;9.116;2023-06-10T08:40:19;0.30;;;0.30;;
7573;SDS011;3828;48.922;9.116;2023-06-10T08:42:48;0.60;;;0.60;;
7573;SDS011;3828;48.922;9.116;2023-06-10T08:45:19;0.20;;;0.20;;
7573;SDS011;3828;48.922;9.116;2023-06-10T08:47:50;0.33;;;0.33;;
7573;SDS011;3828;48.922;9.116;2023-06-10T08:50:18;0.30;;;0.30;;
7573;SDS011;3828;48.922;9.116;2023-06-10T08:52:46;0.30;;;0.30;;
7573;SDS011;3828;48.922;9.116;2023-06-10T08:55:17;0.20;;;0.20;;
7573;SDS011;3828;48.922;9.116;2023-06-10T08:57:47;0.20;;;0.20;;
7573;SDS011;3828;48.922;9.116;2023-06-10T09:00:15;0.30;;;0.30;;
7573;SDS011;3828;48.922;9.116;2023-06-10T09:02:43;0.20;;;0.20;;
7573;SDS011;3828;48.922;9.116;2023-06-10T09:05:11;0.20;;;0.20;;
7573;SDS011;3828;48.922;9.116;2023-06-10T09:07:40;0.20;;;0.20;;
7573;SDS011;3828;48.922;9.116;2023-06-10T09:10:07;0.20;;;0.20;;
7573;SDS011;3828;48.922;9.116;2023-06-10T09:12:34;0.20;;;0.20;;
7573;SDS011;3828;48.922;9.116;2023-06-10T09:15:03;0.20;;;0.20;;
7573;SDS011;3828;48.922;9.116;2023-06-10T09:17:30;0.20;;;0.20;;
7573;SDS011;3828;48.922;9.116;2023-06-10T09:19:59;0.40;;;0.40;;
7573;SDS011;3828;48.922;9.116;2023-06-10T09:22:29;0.50;;;0.50;;
7573;SDS011;3828;48.922;9.116;2023-06-10T09:25:02;0.40;;;0.40;;
7573;SDS011;3828;48.922;9.116;2023-06-10T09:27:30;0.20;;;0.20;;
7573;SDS011;3828;48.922;9.116;2023-06-10T09:29:58;0.30;;;0.30;;
7573;SDS011;3828;48.922;9.116;2023-06-10T09:32:25;0.17;;;0.17;;
7573;SDS011;3828;48.922;9.116;2023-06-10T09:34:52;0.30;;;0.30;;
7573;SDS011;3828;48.922;9.116;2023-06-10T09:37:22;0.20;;;0.20;;
7573;SDS011;3828;48.922;9.116;2023-06-10T09:40:04;0.30;;;0.30;;
7573;SDS011;3828;48.922;9.116;2023-06-10T09:42:33;0.20;;;0.20;;
7573;SDS011;3828;48.922;9.116;2023-06-10T09:45:00;0.20;;;0.20;;
7573;SDS011;3828;48.922;9.116;2023-06-10T09:47:27;0.20;;;0.20;;
7573;SDS011;3828;48.922;9.116;2023-06-10T09:49:55;0.20;;;0.20;;
7573;SDS011;3828;48.922;9.116;2023-06-10T09:52:22;0.20;;;0.20;;
7573;SDS011;3828;48.922;9.116;2023-06-10T09:54:49;0.20;;;0.20;;
7573;SDS011;3828;48.922;9.116;2023-06-10T09:57:18;0.30;;;0.30;;
7573;SDS011;3828;48.922;9.116;2023-06-10T09:59:46;0.20;;;0.20;;
7573;SDS011;3828;48.922;9.116;2023-06-10T10:02:13;0.40;;;0.40;;
7573;SDS011;3828;48.922;9.116;2023-06-10T10:04:41;0.20;;;0.20;;
7573;SDS011;3828;48.922;9.116;2023-06-10T10:07:08;0.33;;;0.33;;
7573;SDS011;3828;48.922;9.116;2023-06-10T10:09:35;0.17;;;0.17;;
7573;SDS011;3828;48.922;9.116;2023-06-10T10:12:03;0.20;;;0.20;;
7573;SDS011;3828;48.922;9.116;2023-06-10T10:14:36;0.20;;;0.20;;
7573;SDS011;3828;48.922;9.116;2023-06-10T10:17:04;0.20;;;0.20;;
7573;SDS011;3828;48.922;9.116;2023-06-10T10:19:39;0.20;;;0.20;;
7573;SDS011;3828;48.922;9.116;2023-06-10T10:22:14;0.30;;;0.30;;
7573;SDS011;3828;48.922;9.116;2023-06-10T10:24:46;0.30;;;0.30;;
7573;SDS011;3828;48.922;9.116;2023-06-10T10:27:17;0.10;;;0.10;;
7573;SDS011;3828;48.922;9.116;2023-06-10T10:29:46;0.30;;;0.30;;
7573;SDS011;3828;48.922;9.116;2023-06-10T10:32:18;0.10;;;0.10;;
7573;SDS011;3828;48.922;9.116;2023-06-10T10:34:48;0.30;;;0.30;;
7573;SDS011;3828;48.922;9.116;2023-06-10T10:37:19;0.17;;;0.17;;
7573;SDS011;3828;48.922;9.116;2023-06-10T10:39:46;0.20;;;0.20;;
7573;SDS011;3828;48.922;9.116;2023-06-10T10:42:13;0.20;;;0.20;;
7573;SDS011;3828;48.922;9.116;2023-06-10T10:44:42;0.10;;;0.10;;
7573;SDS011;3828;48.922;9.116;2023-06-10T10:47:10;0.20;;;0.20;;
7573;SDS011;3828;48.922;9.116;2023-06-10T10:49:39;0.10;;;0.10;;
7573;SDS011;3828;48.922;9.116;2023-06-10T10:52:11;0.20;;;0.20;;
7573;SDS011;3828;48.922;9.116;2023-06-10T10:54:39;0.20;;;0.20;;
7573;SDS011;3828;48.922;9.116;2023-06-10T10:57:10;0.20;;;0.20;;
7573;SDS011;3828;48.922;9.116;2023-06-10T11:02:34;0.40;;;0.40;;
7573;SDS011;3828;48.922;9.116;2023-06-10T11:05:04;0.20;;;0.20;;
7573;SDS011;3828;48.922;9.116;2023-06-10T11:07:32;0.10;;;0.10;;
7573;SDS011;3828;48.922;9.116;2023-06-10T11:09:59;0.33;;;0.33;;
7573;SDS011;3828;48.922;9.116;2023-06-10T11:15:18;0.13;;;0.13;;
7573;SDS011;3828;48.922;9.116;2023-06-10T11:20:57;0.27;;;0.27;;
7573;SDS011;3828;48.922;9.116;2023-06-10T11:23:26;0.20;;;0.20;;
7573;SDS011;3828;48.922;9.116;2023-06-10T11:29:06;0.20;;;0.20;;
7573;SDS011;3828;48.922;9.116;2023-06-10T11:31:38;0.30;;;0.30;;
7573;SDS011;3828;48.922;9.116;2023-06-10T11:34:07;0.40;;;0.40;;
7573;SDS011;3828;48.922;9.116;2023-06-10T11:36:36;0.20;;;0.20;;
7573;SDS011;3828;48.922;9.116;2023-06-10T11:39:05;0.23;;;0.23;;
7573;SDS011;3828;48.922;9.116;2023-06-10T11:41:34;0.10;;;0.10;;
7573;SDS011;3828;48.922;9.116;2023-06-10T11:44:03;0.20;;;0.20;;
7573;SDS011;3828;48.922;9.116;2023-06-10T11:46:33;0.10;;;0.10;;
7573;SDS011;3828;48.922;9.116;2023-06-10T11:49:00;0.10;;;0.10;;
7573;SDS011;3828;48.922;9.116;2023-06-10T11:51:28;0.20;;;0.20;;
7573;SDS011;3828;48.922;9.116;2023-06-10T11:53:57;0.23;;;0.23;;
7573;SDS011;3828;48.922;9.116;2023-06-10T11:56:25;0.20;;;0.20;;
7573;SDS011;3828;48.922;9.116;2023-06-10T11:58:53;0.10;;;0.10;;
7573;SDS011;3828;48.922;9.116;2023-06-10T12:01:23;0.10;;;0.10;;
7573;SDS011;3828;48.922;9.116;2023-06-10T12:03:59;0.10;;;0.10;;
7573;SDS011;3828;48.922;9.116;2023-06-10T12:06:26;0.10;;;0.10;;
7573;SDS011;3828;48.922;9.116;2023-06-10T12:08:54;0.17;;;0.17;;
7573;SDS011;3828;48.922;9.116;2023-06-10T12:11:23;0.30;;;0.30;;
7573;SDS011;3828;48.922;9.116;2023-06-10T12:13:50;0.30;;;0.30;;
7573;SDS011;3828;48.922;9.116;2023-06-10T12:16:17;0.30;;;0.30;;
7573;SDS011;3828;48.922;9.116;2023-06-10T12:18:44;0.27;;;0.27;;
7573;SDS011;3828;48.922;9.116;2023-06-10T12:21:16;0.33;;;0.33;;
7573;SDS011;3828;48.922;9.116;2023-06-10T12:26:37;0.10;;;0.10;;
7573;SDS011;3828;48.922;9.116;2023-06-10T12:29:21;0.13;;;0.13;;
7573;SDS011;3828;48.922;9.116;2023-06-10T12:31:54;0.20;;;0.20;;
7573;SDS011;3828;48.922;9.116;2023-06-10T12:34:27;0.27;;;0.27;;
7573;SDS011;3828;48.922;9.116;2023-06-10T12:36:55;0.10;;;0.10;;
7573;SDS011;3828;48.922;9.116;2023-06-10T12:39:22;0.20;;;0.20;;
7573;SDS011;3828;48.922;9.116;2023-06-10T12:41:50;0.20;;;0.20;;
7573;SDS011;3828;48.922;9.116;2023-06-10T12:44:18;0.10;;;0.10;;
7573;SDS011;3828;48.922;9.116;2023-06-10T12:46:46;0.10;;;0.10;;
7573;SDS011;3828;48.922;9.116;2023-06-10T12:49:20;0.23;;;0.23;;
7573;SDS011;3828;48.922;9.116;2023-06-10T12:51:47;0.10;;;0.10;;
7573;SDS011;3828;48.922;9.116;2023-06-10T12:54:14;0.10;;;0.10;;
7573;SDS011;3828;48.922;9.116;2023-06-10T12:56:41;0.13;;;0.13;;
7573;SDS011;3828;48.922;9.116;2023-06-10T12:59:10;0.53;;;0.53;;
7573;SDS011;3828;48.922;9.116;2023-06-10T13:01:37;0.20;;;0.20;;
7573;SDS011;3828;48.922;9.116;2023-06-10T13:04:04;0.40;;;0.40;;
7573;SDS011;3828;48.922;9.116;2023-06-10T13:06:32;0.30;;;0.30;;
7573;SDS011;3828;48.922;9.116;2023-06-10T13:09:01;0.40;;;0.40;;
7573;SDS011;3828;48.922;9.116;2023-06-10T13:11:29;0.63;;;0.63;;
7573;SDS011;3828;48.922;9.116;2023-06-10T13:13:56;0.30;;;0.30;;
7573;SDS011;3828;48.922;9.116;2023-06-10T13:16:24;0.40;;;0.40;;
7573;SDS011;3828;48.922;9.116;2023-06-10T13:18:52;0.20;;;0.20;;
7573;SDS011;3828;48.922;9.116;2023-06-10T13:21:19;0.50;;;0.50;;
7573;SDS011;3828;48.922;9.116;2023-06-10T13:23:46;0.20;;;0.20;;
7573;SDS011;3828;48.922;9.116;2023-06-10T13:26:13;0.67;;;0.67;;
7573;SDS011;3828;48.922;9.116;2023-06-10T13:29:02;0.20;;;0.20;;
7573;SDS011;3828;48.922;9.116;2023-06-10T13:31:30;0.10;;;0.10;;
7573;SDS011;3828;48.922;9.116;2023-06-10T13:33:57;0.10;;;0.10;;
7573;SDS011;3828;48.922;9.116;2023-06-10T13:36:24;0.20;;;0.20;;
7573;SDS011;3828;48.922;9.116;2023-06-10T13:38:51;0.10;;;0.10;;
7573;SDS011;3828;48.922;9.116;2023-06-10T13:41:18;0.13;;;0.13;;
7573;SDS011;3828;48.922;9.116;2023-06-10T13:43:45;0.10;;;0.10;;
7573;SDS011;3828;48.922;9.116;2023-06-10T13:46:12;0.13;;;0.13;;
7573;SDS011;3828;48.922;9.116;2023-06-10T13:48:41;0.10;;;0.10;;
7573;SDS011;3828;48.922;9.116;2023-06-10T13:51:07;0.10;;;0.10;;
7573;SDS011;3828;48.922;9.116;2023-06-10T13:53:36;0.20;;;0.20;;
7573;SDS011;3828;48.922;9.116;2023-06-10T13:56:03;0.10;;;0.10;;
7573;SDS011;3828;48.922;9.116;2023-06-10T13:58:30;0.40;;;0.40;;
7573;SDS011;3828;48.922;9.116;2023-06-10T14:00:58;0.40;;;0.40;;
7573;SDS011;3828;48.922;9.116;2023-06-10T14:03:26;0.10;;;0.10;;
7573;SDS011;3828;48.922;9.116;2023-06-10T14:05:54;0.87;;;0.87;;
7573;SDS011;3828;48.922;9.116;2023-06-10T14:08:21;0.20;;;0.20;;
7573;SDS011;3828;48.922;9.116;2023-06-10T14:10:48;0.10;;;0.10;;
7573;SDS011;3828;48.922;9.116;2023-06-10T14:13:15;0.50;;;0.50;;
7573;SDS011;3828;48.922;9.116;2023-06-10T14:15:43;0.20;;;0.20;;
7573;SDS011;3828;48.922;9.116;2023-06-10T14:18:10;0.30;;;0.30;;
7573;SDS011;3828;48.922;9.116;2023-06-10T14:20:37;0.17;;;0.17;;
7573;SDS011;3828;48.922;9.116;2023-06-10T14:23:05;0.20;;;0.20;;
7573;SDS011;3828;48.922;9.116;2023-06-10T14:25:32;0.20;;;0.20;;
7573;SDS011;3828;48.922;9.116;2023-06-10T14:27:59;0.20;;;0.20;;
7573;SDS011;3828;48.922;9.116;2023-06-10T14:30:26;0.20;;;0.20;;
7573;SDS011;3828;48.922;9.116;2023-06-10T14:32:53;0.20;;;0.20;;
7573;SDS011;3828;48.922;9.116;2023-06-10T14:35:20;0.10;;;0.10;;
7573;SDS011;3828;48.922;9.116;2023-06-10T14:37:47;0.83;;;0.83;;
7573;SDS011;3828;48.922;9.116;2023-06-10T14:40:16;0.10;;;0.10;;
7573;SDS011;3828;48.922;9.116;2023-06-10T14:42:43;0.70;;;0.70;;
7573;SDS011;3828;48.922;9.116;2023-06-10T14:45:09;0.60;;;0.60;;
7573;SDS011;3828;48.922;9.116;2023-06-10T14:47:36;0.40;;;0.40;;
7573;SDS011;3828;48.922;9.116;2023-06-10T14:50:04;0.10;;;0.10;;
7573;SDS011;3828;48.922;9.116;2023-06-10T14:52:31;0.30;;;0.30;;
7573;SDS011;3828;48.922;9.116;2023-06-10T14:54:58;0.20;;;0.20;;
7573;SDS011;3828;48.922;9.116;2023-06-10T14:57:26;0.30;;;0.30;;
7573;SDS011;3828;48.922;9.116;2023-06-10T14:59:53;0.50;;;0.50;;
7573;SDS011;3828;48.922;9.116;2023-06-10T15:02:21;0.20;;;0.20;;
7573;SDS011;3828;48.922;9.116;2023-06-10T15:04:48;0.10;;;0.10;;
7573;SDS011;3828;48.922;9.116;2023-06-10T15:07:15;0.30;;;0.30;;
7573;SDS011;3828;48.922;9.116;2023-06-10T15:09:42;0.10;;;0.10;;
7573;SDS011;3828;48.922;9.116;2023-06-10T15:12:10;0.20;;;0.20;;
7573;SDS011;3828;48.922;9.116;2023-06-10T15:14:38;0.33;;;0.33;;
7573;SDS011;3828;48.922;9.116;2023-06-10T15:17:05;0.20;;;0.20;;
7573;SDS011;3828;48.922;9.116;2023-06-10T15:19:32;0.50;;;0.50;;
7573;SDS011;3828;48.922;9.116;2023-06-10T15:21:59;0.20;;;0.20;;
7573;SDS011;3828;48.922;9.116;2023-06-10T15:24:26;0.37;;;0.37;;
7573;SDS011;3828;48.922;9.116;2023-06-10T15:26:53;0.20;;;0.20;;
7573;SDS011;3828;48.922;9.116;2023-06-10T15:29:20;0.40;;;0.40;;
7573;SDS011;3828;48.922;9.116;2023-06-10T15:31:48;0.20;;;0.20;;
7573;SDS011;3828;48.922;9.116;2023-06-10T15:34:15;0.50;;;0.50;;